Time;durP1;ratioP1;P1;durP2;ratioP2;P2;SDS_P1;SDS_P2;PMS_P1;PMS_P2;Temp;Humidity;BMP_temperature;BMP_pressure;BME280_temperature;BME280_humidity;BME280_pressure;Samples;Min_cycle;Max_cycle;Signal;HPM_P1;HPM_P2
2023/01/07 00:01:23;;;;;;;13.90;4.00;;;11.00;99.90;;;;;;5049649;28;20222;-83
2023/01/07 00:03:52;;;;;;;12.63;3.70;;;11.10;99.90;;;;;;5042658;28;20225;-83
2023/01/07 00:06:22;;;;;;;15.87;4.23;;;11.20;99.90;;;;;;5055393;28;20675;-83
2023/01/07 00:08:52;;;;;;;14.60;3.93;;;11.20;99.90;;;;;;5047940;28;20258;-83
2023/01/07 00:11:21;;;;;;;13.80;4.07;;;11.20;99.90;;;;;;5043493;28;20237;-83
2023/01/07 00:13:49;;;;;;;16.03;4.13;;;11.20;99.90;;;;;;5030370;28;20228;-83
2023/01/07 00:16:18;;;;;;;14.20;3.83;;;11.20;99.90;;;;;;5049943;28;20205;-81
2023/01/07 00:18:45;;;;;;;16.53;4.30;;;11.30;99.90;;;;;;5062121;28;20193;-82
2023/01/07 00:21:14;;;;;;;11.47;3.43;;;11.30;99.90;;;;;;5052666;28;20283;-82
2023/01/07 00:23:44;;;;;;;14.27;3.67;;;11.30;99.90;;;;;;5050439;28;20231;-83
2023/01/07 00:26:13;;;;;;;11.70;3.37;;;11.30;99.90;;;;;;5029381;28;20213;-83
2023/01/07 00:28:46;;;;;;;15.17;4.27;;;11.40;99.90;;;;;;5049093;28;20206;-83
2023/01/07 00:31:14;;;;;;;19.83;4.80;;;11.40;99.90;;;;;;5031865;28;20313;-83
2023/01/07 00:34:05;;;;;;;15.67;4.10;;;11.40;99.90;;;;;;5039575;28;20306;-83
2023/01/07 00:36:34;;;;;;;13.87;3.93;;;11.40;99.90;;;;;;5047914;28;20236;-83
2023/01/07 00:39:04;;;;;;;20.13;5.03;;;11.40;99.90;;;;;;5059045;28;20192;-82
2023/01/07 00:41:37;;;;;;;13.37;3.80;;;11.40;99.90;;;;;;5063926;28;20206;-82
2023/01/07 00:44:09;;;;;;;13.33;3.50;;;11.30;99.90;;;;;;5063189;28;20218;-83
2023/01/07 00:46:36;;;;;;;12.50;3.67;;;11.40;99.90;;;;;;5069362;28;20204;-84
2023/01/07 00:49:09;;;;;;;19.20;4.37;;;11.30;99.90;;;;;;5070838;28;20197;-83
2023/01/07 00:51:40;;;;;;;14.23;3.80;;;11.30;99.90;;;;;;5035853;28;20238;-83
2023/01/07 00:54:10;;;;;;;14.20;3.93;;;;;;;;;;5056589;28;20205;-83
2023/01/07 00:56:37;;;;;;;20.43;4.43;;;11.60;99.90;;;;;;5050959;28;20215;-83
2023/01/07 00:59:04;;;;;;;16.60;4.50;;;11.40;99.90;;;;;;5042563;28;20197;-83
2023/01/07 01:01:31;;;;;;;15.63;4.27;;;12.30;99.90;;;;;;5037919;28;20197;-83
2023/01/07 01:03:59;;;;;;;14.83;3.57;;;11.40;99.90;;;;;;5044378;28;20243;-82
2023/01/07 01:06:26;;;;;;;12.80;3.70;;;11.40;99.90;;;;;;5043091;28;20204;-83
2023/01/07 01:08:53;;;;;;;10.90;3.27;;;11.50;99.90;;;;;;5056114;28;20213;-83
2023/01/07 01:11:21;;;;;;;14.20;4.00;;;11.40;99.90;;;;;;5039956;28;20237;-83
2023/01/07 01:13:48;;;;;;;11.77;3.23;;;11.50;99.90;;;;;;5065545;28;20281;-83
2023/01/07 01:16:18;;;;;;;14.93;4.00;;;11.40;99.90;;;;;;5037663;28;20201;-83
2023/01/07 01:18:45;;;;;;;14.27;3.67;;;11.40;99.90;;;;;;5036294;28;20222;-83
2023/01/07 01:21:15;;;;;;;14.77;3.70;;;11.40;99.90;;;;;;5046882;28;20205;-83
2023/01/07 01:23:43;;;;;;;17.27;4.17;;;11.50;99.90;;;;;;5028706;28;20527;-83
2023/01/07 01:26:13;;;;;;;14.57;4.13;;;11.50;99.90;;;;;;5048685;28;20213;-83
2023/01/07 01:28:42;;;;;;;13.63;3.93;;;11.40;99.90;;;;;;5025600;28;20214;-83
2023/01/07 01:31:10;;;;;;;14.07;3.90;;;11.50;99.90;;;;;;5031793;28;20248;-83
2023/01/07 01:33:47;;;;;;;13.47;3.70;;;11.50;99.90;;;;;;5021575;28;20264;-82
2023/01/07 01:36:14;;;;;;;18.10;4.50;;;11.50;99.90;;;;;;5034214;28;20213;-82
2023/01/07 01:38:41;;;;;;;13.40;3.80;;;11.50;99.90;;;;;;5018968;28;20697;-82
2023/01/07 01:41:09;;;;;;;14.17;3.97;;;11.50;99.90;;;;;;5043229;28;20745;-82
2023/01/07 01:43:43;;;;;;;16.37;4.70;;;11.50;99.90;;;;;;5022484;28;20606;-82
2023/01/07 01:46:15;;;;;;;12.17;3.53;;;11.50;99.90;;;;;;5048615;28;20293;-82
2023/01/07 01:48:47;;;;;;;13.97;3.90;;;11.50;99.90;;;;;;5034518;28;20236;-82
2023/01/07 01:51:16;;;;;;;14.40;4.17;;;11.50;99.90;;;;;;5032297;28;20274;-82
2023/01/07 01:53:44;;;;;;;13.63;4.03;;;11.50;99.90;;;;;;5042793;28;20454;-83
2023/01/07 01:56:14;;;;;;;12.27;3.63;;;11.50;99.90;;;;;;5046944;28;20295;-83
2023/01/07 01:58:45;;;;;;;14.17;3.90;;;11.50;99.90;;;;;;5020296;28;20223;-83
2023/01/07 02:01:13;;;;;;;14.67;4.20;;;11.50;99.90;;;;;;5027736;28;20202;-82
2023/01/07 02:03:40;;;;;;;16.40;4.23;;;11.50;99.90;;;;;;5031350;28;20233;-82
2023/01/07 02:06:12;;;;;;;13.03;3.67;;;11.40;99.90;;;;;;5033387;28;20235;-82
2023/01/07 02:08:39;;;;;;;13.87;3.80;;;11.40;99.90;;;;;;5033173;28;20197;-82
2023/01/07 02:11:23;;;;;;;13.80;3.93;;;11.40;99.90;;;;;;5035036;28;20233;-83
2023/01/07 02:14:03;;;;;;;13.63;3.33;;;11.40;99.90;;;;;;5051333;28;20253;-83
2023/01/07 02:16:37;;;;;;;14.27;3.83;;;11.30;99.90;;;;;;5056299;28;20327;-83
2023/01/07 02:19:35;;;;;;;11.93;3.27;;;11.40;99.90;;;;;;5032495;28;20209;-82
2023/01/07 02:22:09;;;;;;;10.93;3.20;;;11.30;99.90;;;;;;5022600;28;20233;-83
2023/01/07 02:25:04;;;;;;;11.50;3.53;;;11.30;99.90;;;;;;5021792;28;20246;-82
2023/01/07 02:28:05;;;;;;;11.43;3.50;;;11.30;99.90;;;;;;5042944;28;20190;-84
2023/01/07 02:30:50;;;;;;;9.87;3.07;;;11.30;99.90;;;;;;5029206;28;20213;-82
2023/01/07 02:33:27;;;;;;;10.43;3.03;;;11.30;99.90;;;;;;5047135;28;20320;-82
2023/01/07 02:36:14;;;;;;;10.40;3.00;;;11.40;99.90;;;;;;5043093;28;20284;-82
2023/01/07 02:39:19;;;;;;;11.33;3.23;;;11.30;99.90;;;;;;5034265;28;20209;-82
2023/01/07 02:41:54;;;;;;;9.03;2.47;;;11.30;99.90;;;;;;5023283;28;20263;-81
2023/01/07 02:44:34;;;;;;;8.07;2.53;;;11.30;99.90;;;;;;5033950;28;20189;-81
2023/01/07 02:47:06;;;;;;;9.80;2.70;;;11.30;99.90;;;;;;5043127;28;20186;-81
2023/01/07 02:49:35;;;;;;;10.27;2.70;;;11.30;99.90;;;;;;5046889;28;20200;-82
2023/01/07 02:52:19;;;;;;;14.00;4.20;;;11.30;99.90;;;;;;5057364;28;20445;-82
2023/01/07 02:54:52;;;;;;;14.00;3.80;;;11.30;99.90;;;;;;5061578;28;20216;-82
2023/01/07 02:57:42;;;;;;;17.50;4.43;;;11.30;99.90;;;;;;5050659;28;20213;-83
2023/01/07 03:00:22;;;;;;;10.80;3.10;;;11.40;99.90;;;;;;5028116;28;20235;-81
2023/01/07 03:03:07;;;;;;;11.97;3.50;;;11.30;99.90;;;;;;5031667;28;20601;-81
2023/01/07 03:05:48;;;;;;;11.50;3.33;;;11.30;99.90;;;;;;5032507;28;20321;-82
2023/01/07 03:08:34;;;;;;;14.13;3.87;;;11.30;99.90;;;;;;5034162;28;20299;-82
2023/01/07 03:11:04;;;;;;;12.00;3.40;;;11.30;99.90;;;;;;5038863;28;20260;-82
2023/01/07 03:13:36;;;;;;;13.57;3.77;;;11.30;99.90;;;;;;5035456;28;20241;-82
2023/01/07 03:16:08;;;;;;;15.33;3.73;;;11.30;99.90;;;;;;5029181;28;20794;-82
2023/01/07 03:18:40;;;;;;;13.37;3.80;;;11.30;99.90;;;;;;5050827;28;20201;-82
2023/01/07 03:21:13;;;;;;;13.27;3.70;;;11.20;99.90;;;;;;5038868;28;20209;-82
2023/01/07 03:23:45;;;;;;;13.30;3.63;;;11.20;99.90;;;;;;5054220;28;20233;-82
2023/01/07 03:26:19;;;;;;;14.77;3.90;;;11.10;99.90;;;;;;5051313;28;20708;-82
2023/01/07 03:28:48;;;;;;;14.43;3.90;;;11.10;99.90;;;;;;5023155;28;20293;-82
2023/01/07 03:31:16;;;;;;;12.27;3.30;;;11.10;99.90;;;;;;5031771;28;20320;-82
2023/01/07 03:33:50;;;;;;;12.50;3.70;;;11.10;99.90;;;;;;5024710;28;20241;-82
2023/01/07 03:36:22;;;;;;;11.23;3.47;;;11.10;99.90;;;;;;5027041;28;20217;-82
2023/01/07 03:38:52;;;;;;;14.33;3.80;;;11.00;99.90;;;;;;5023581;28;20213;-82
2023/01/07 03:44:04;;;;;;;16.43;4.43;;;11.00;99.90;;;;;;5001464;28;20315;-82
2023/01/07 03:46:33;;;;;;;13.33;3.80;;;11.00;99.90;;;;;;5029206;28;20266;-82
2023/01/07 03:49:00;;;;;;;13.70;3.73;;;10.90;99.90;;;;;;5027998;28;20221;-82
2023/01/07 03:51:29;;;;;;;15.40;3.93;;;10.90;99.90;;;;;;5030891;28;20231;-82
2023/01/07 03:53:56;;;;;;;14.30;3.93;;;10.80;99.90;;;;;;5044982;28;20230;-81
2023/01/07 03:56:24;;;;;;;11.47;3.40;;;10.70;99.90;;;;;;5044418;28;20524;-82
2023/01/07 03:58:50;;;;;;;15.03;3.93;;;10.60;99.90;;;;;;5045292;28;20241;-82
2023/01/07 04:01:17;;;;;;;17.60;4.23;;;10.60;99.90;;;;;;5042487;28;20202;-82
2023/01/07 04:03:44;;;;;;;11.70;3.23;;;10.50;99.90;;;;;;5043671;28;20239;-82
2023/01/07 04:06:11;;;;;;;13.57;3.90;;;10.40;99.90;;;;;;5058063;28;20223;-82
2023/01/07 04:08:40;;;;;;;13.80;4.03;;;10.40;99.90;;;;;;5055100;28;20277;-82
2023/01/07 04:11:07;;;;;;;12.10;3.80;;;10.30;99.90;;;;;;5031752;28;20227;-81
2023/01/07 04:13:34;;;;;;;15.27;4.40;;;10.30;99.90;;;;;;5036162;28;20444;-82
2023/01/07 04:16:01;;;;;;;13.60;3.83;;;10.30;99.90;;;;;;5035571;28;20220;-82
2023/01/07 04:18:29;;;;;;;15.23;4.40;;;10.30;99.90;;;;;;5030086;28;20227;-82
2023/01/07 04:20:55;;;;;;;14.63;4.13;;;10.30;99.90;;;;;;5020162;28;20221;-82
2023/01/07 04:23:22;;;;;;;15.77;4.30;;;10.40;99.90;;;;;;5025932;28;20470;-82
2023/01/07 04:25:52;;;;;;;14.23;4.10;;;10.40;99.90;;;;;;5032349;28;20217;-82
2023/01/07 04:28:22;;;;;;;17.77;4.73;;;10.50;99.90;;;;;;5031581;28;20220;-82
2023/01/07 04:30:50;;;;;;;14.13;3.90;;;10.50;99.90;;;;;;5026004;28;20529;-81
2023/01/07 04:33:18;;;;;;;12.77;3.80;;;10.50;99.90;;;;;;5042272;28;20233;-82
2023/01/07 04:35:46;;;;;;;12.53;3.63;;;10.50;99.90;;;;;;5043207;28;20181;-82
2023/01/07 04:38:13;;;;;;;9.73;3.00;;;10.60;99.90;;;;;;5049043;28;20215;-82
2023/01/07 04:40:40;;;;;;;8.20;2.70;;;10.60;99.90;;;;;;5025224;28;20205;-82
2023/01/07 04:43:09;;;;;;;13.03;4.03;;;10.60;99.90;;;;;;5045338;28;20924;-82
2023/01/07 04:45:36;;;;;;;13.10;4.07;;;10.60;99.90;;;;;;5027065;28;20219;-82
2023/01/07 04:48:03;;;;;;;13.43;3.97;;;10.60;99.90;;;;;;5025751;28;20206;-82
2023/01/07 04:50:31;;;;;;;12.90;3.77;;;10.60;99.90;;;;;;5028330;28;20213;-82
2023/01/07 04:52:58;;;;;;;14.30;3.73;;;10.60;99.90;;;;;;5026575;28;20284;-82
2023/01/07 04:55:25;;;;;;;12.73;3.97;;;10.60;99.90;;;;;;5029447;28;20975;-82
2023/01/07 04:57:52;;;;;;;16.57;4.77;;;10.70;99.90;;;;;;5024366;28;20330;-82
2023/01/07 05:00:20;;;;;;;14.70;4.00;;;10.60;99.90;;;;;;5036033;28;20710;-82
2023/01/07 05:02:50;;;;;;;17.60;4.17;;;10.70;99.90;;;;;;5029899;28;20228;-82
2023/01/07 05:05:18;;;;;;;13.43;3.70;;;10.60;99.90;;;;;;5030317;28;20235;-82
2023/01/07 05:07:46;;;;;;;15.23;3.90;;;10.70;99.90;;;;;;5038377;28;20210;-82
2023/01/07 05:10:16;;;;;;;14.37;4.00;;;10.70;99.90;;;;;;5038149;28;20303;-82
2023/01/07 05:12:44;;;;;;;16.47;4.20;;;10.70;99.90;;;;;;5041056;28;20224;-83
2023/01/07 05:15:13;;;;;;;11.37;3.10;;;10.60;99.90;;;;;;5034368;28;20326;-83
2023/01/07 05:17:43;;;;;;;15.87;4.47;;;10.60;99.90;;;;;;5035661;28;20219;-83
2023/01/07 05:20:11;;;;;;;12.37;3.63;;;10.60;99.90;;;;;;5037128;28;20208;-82
2023/01/07 05:22:39;;;;;;;16.20;4.27;;;10.60;99.90;;;;;;5028089;28;20225;-82
2023/01/07 05:25:07;;;;;;;12.80;3.83;;;10.50;99.90;;;;;;5041884;28;20213;-83
2023/01/07 05:27:34;;;;;;;17.47;4.50;;;10.50;99.90;;;;;;5029993;28;20201;-82
2023/01/07 05:30:03;;;;;;;16.37;4.23;;;10.50;99.90;;;;;;5031458;28;20458;-82
2023/01/07 05:32:29;;;;;;;17.20;4.63;;;10.40;99.90;;;;;;5026303;28;20800;-82
2023/01/07 05:34:58;;;;;;;16.10;4.53;;;10.40;99.90;;;;;;5022729;28;20209;-82
2023/01/07 05:37:25;;;;;;;13.10;4.10;;;10.30;99.90;;;;;;5024235;28;20670;-82
2023/01/07 05:39:52;;;;;;;13.17;3.90;;;10.20;99.90;;;;;;5028291;28;20213;-82
2023/01/07 05:42:21;;;;;;;13.67;4.40;;;10.20;99.90;;;;;;5048837;28;20777;-83
2023/01/07 05:44:49;;;;;;;13.27;4.50;;;10.10;99.90;;;;;;5032341;28;20273;-82
2023/01/07 05:47:16;;;;;;;14.87;4.50;;;10.10;99.90;;;;;;5052375;28;20209;-82
2023/01/07 05:49:43;;;;;;;13.20;3.93;;;10.00;99.90;;;;;;5037998;28;20263;-83
2023/01/07 05:52:11;;;;;;;13.10;4.43;;;10.00;99.90;;;;;;5033015;28;20699;-83
2023/01/07 05:54:38;;;;;;;13.53;4.23;;;9.90;99.90;;;;;;5055684;28;20276;-83
2023/01/07 05:57:05;;;;;;;16.50;4.90;;;9.80;99.90;;;;;;5053410;28;20208;-84
2023/01/07 05:59:33;;;;;;;16.83;4.77;;;9.80;99.90;;;;;;5042483;28;20216;-82
2023/01/07 06:02:00;;;;;;;10.93;4.47;;;9.80;99.90;;;;;;5019088;28;20213;-83
2023/01/07 06:04:27;;;;;;;11.67;4.13;;;9.60;99.90;;;;;;5028694;28;20215;-83
2023/01/07 06:06:54;;;;;;;11.70;4.27;;;9.50;99.90;;;;;;5035918;28;20206;-83
2023/01/07 06:09:22;;;;;;;11.90;4.57;;;9.50;99.90;;;;;;5043089;28;20216;-83
2023/01/07 06:11:49;;;;;;;14.13;4.37;;;9.50;99.90;;;;;;5039493;28;20204;-83
2023/01/07 06:14:16;;;;;;;9.90;4.07;;;9.50;99.90;;;;;;5023773;28;20572;-83
2023/01/07 06:16:43;;;;;;;11.97;4.37;;;9.40;99.90;;;;;;5040486;28;20564;-83
2023/01/07 06:19:10;;;;;;;11.67;4.40;;;9.40;99.90;;;;;;5028794;28;20653;-82
2023/01/07 06:21:37;;;;;;;12.80;4.70;;;9.40;99.90;;;;;;5027207;28;20545;-83
2023/01/07 06:24:05;;;;;;;15.13;4.60;;;9.30;99.90;;;;;;5053227;28;20231;-83
2023/01/07 06:26:33;;;;;;;12.03;4.27;;;9.30;99.90;;;;;;5052982;28;20208;-83
2023/01/07 06:29:00;;;;;;;9.87;3.90;;;9.30;99.90;;;;;;5052387;28;20209;-83
2023/01/07 06:31:28;;;;;;;11.53;4.37;;;;;;;;;;5039023;28;20209;-82
2023/01/07 06:33:54;;;;;;;12.03;4.37;;;9.30;99.90;;;;;;5048655;28;20243;-83
2023/01/07 06:36:21;;;;;;;11.07;4.13;;;9.30;99.90;;;;;;5045399;28;20217;-83
2023/01/07 06:38:48;;;;;;;10.30;4.10;;;9.30;99.90;;;;;;5049889;28;20298;-83
2023/01/07 06:41:15;;;;;;;8.63;3.97;;;9.20;99.90;;;;;;5051109;28;20208;-83
2023/01/07 06:43:44;;;;;;;12.30;4.30;;;9.20;99.90;;;;;;5039221;28;20239;-83
2023/01/07 06:46:11;;;;;;;12.53;4.30;;;9.20;99.90;;;;;;5024717;28;20696;-83
2023/01/07 06:48:38;;;;;;;9.37;3.93;;;9.30;99.90;;;;;;5041501;28;20205;-83
2023/01/07 06:51:05;;;;;;;9.40;3.93;;;9.30;99.90;;;;;;5048010;28;20302;-83
2023/01/07 06:53:33;;;;;;;9.97;4.23;;;9.30;99.90;;;;;;5044543;28;20233;-83
2023/01/07 06:56:00;;;;;;;11.67;4.03;;;9.40;99.90;;;;;;5050185;28;20228;-83
2023/01/07 06:58:26;;;;;;;11.27;4.33;;;9.50;99.90;;;;;;5043826;28;20906;-83
2023/01/07 07:00:55;;;;;;;11.10;3.80;;;9.60;99.90;;;;;;5047835;28;20209;-83
2023/01/07 07:03:22;;;;;;;11.83;4.07;;;9.70;99.90;;;;;;5029239;28;20237;-83
2023/01/07 07:05:48;;;;;;;8.83;3.60;;;9.80;99.90;;;;;;5024802;28;20219;-83
2023/01/07 07:08:15;;;;;;;10.87;4.17;;;9.90;99.90;;;;;;5052270;28;20209;-83
2023/01/07 07:10:42;;;;;;;10.73;4.07;;;10.00;99.90;;;;;;5034047;28;20224;-83
2023/01/07 07:13:10;;;;;;;11.03;4.07;;;10.10;99.90;;;;;;5042156;28;20233;-84
2023/01/07 07:15:37;;;;;;;11.97;3.77;;;10.10;99.90;;;;;;5028359;28;20242;-84
2023/01/07 07:18:06;;;;;;;9.07;3.63;;;10.20;99.90;;;;;;5041387;28;20212;-83
2023/01/07 07:20:33;;;;;;;8.77;3.60;;;10.30;99.90;;;;;;5047974;28;20216;-83
2023/01/07 07:22:59;;;;;;;9.33;3.70;;;10.30;99.90;;;;;;5052834;28;20228;-83
2023/01/07 07:25:26;;;;;;;9.03;3.57;;;10.40;99.90;;;;;;5048958;28;20212;-83
2023/01/07 07:27:53;;;;;;;9.13;3.87;;;10.50;99.90;;;;;;5048312;28;20205;-83
2023/01/07 07:30:20;;;;;;;9.47;3.60;;;10.50;99.90;;;;;;5034033;28;20216;-83
2023/01/07 07:32:47;;;;;;;7.47;3.07;;;10.50;99.90;;;;;;5031833;28;20228;-83
2023/01/07 07:35:16;;;;;;;10.10;3.50;;;10.60;99.90;;;;;;5032840;28;20219;-84
2023/01/07 07:37:43;;;;;;;10.93;4.10;;;10.60;99.90;;;;;;5047429;28;20224;-82
2023/01/07 07:40:10;;;;;;;9.10;3.50;;;10.60;99.90;;;;;;5033713;28;20217;-82
2023/01/07 07:42:38;;;;;;;10.00;3.60;;;10.70;99.90;;;;;;5039778;28;20809;-82
2023/01/07 07:45:08;;;;;;;12.27;4.50;;;10.70;99.90;;;;;;5031639;28;20213;-80
2023/01/07 07:47:35;;;;;;;9.47;3.50;;;10.80;99.90;;;;;;5024561;28;20211;-80
2023/01/07 07:50:04;;;;;;;9.20;3.87;;;10.80;99.90;;;;;;5038337;28;20212;-80
2023/01/07 07:52:32;;;;;;;7.90;3.20;;;10.80;99.90;;;;;;5041374;28;20225;-80
2023/01/07 07:54:59;;;;;;;7.03;3.20;;;10.80;99.90;;;;;;5042667;28;20209;-80
2023/01/07 07:57:26;;;;;;;8.50;3.70;;;10.90;99.90;;;;;;5043591;28;20206;-80
2023/01/07 07:59:52;;;;;;;9.67;3.50;;;10.90;99.90;;;;;;5042138;28;20209;-81
2023/01/07 08:02:19;;;;;;;9.63;3.40;;;10.90;99.90;;;;;;5023479;28;20229;-81
2023/01/07 08:04:46;;;;;;;8.77;3.73;;;10.90;99.90;;;;;;5037928;28;20214;-82
2023/01/07 08:07:13;;;;;;;12.10;4.17;;;10.90;99.90;;;;;;5028081;28;20208;-82
2023/01/07 08:09:42;;;;;;;9.37;3.80;;;11.00;99.90;;;;;;5043612;28;20292;-82
2023/01/07 08:12:09;;;;;;;8.57;3.20;;;11.00;99.90;;;;;;5037171;28;20233;-82
2023/01/07 08:14:36;;;;;;;13.20;4.33;;;11.00;99.90;;;;;;5022529;28;20217;-82
2023/01/07 08:17:03;;;;;;;10.67;4.07;;;11.00;99.90;;;;;;5023042;28;20898;-82
2023/01/07 08:19:30;;;;;;;10.03;3.90;;;11.00;99.90;;;;;;5032819;28;20209;-81
2023/01/07 08:21:57;;;;;;;13.33;4.10;;;11.10;99.90;;;;;;5045727;28;20200;-82
2023/01/07 08:24:24;;;;;;;7.83;3.17;;;11.10;99.90;;;;;;5037871;28;20229;-82
2023/01/07 08:26:54;;;;;;;12.90;3.67;;;11.10;99.90;;;;;;5051919;28;20209;-82
2023/01/07 08:29:22;;;;;;;9.70;3.67;;;11.10;99.90;;;;;;5028307;28;20248;-82
2023/01/07 08:31:49;;;;;;;10.00;3.47;;;11.20;99.90;;;;;;5032487;28;20212;-82
2023/01/07 08:34:16;;;;;;;7.23;3.07;;;11.20;99.90;;;;;;5037800;28;20737;-80
2023/01/07 08:36:43;;;;;;;10.00;3.40;;;11.20;99.90;;;;;;5041343;28;20228;-81
2023/01/07 08:39:11;;;;;;;6.90;3.03;;;11.20;99.90;;;;;;5025167;28;20242;-81
2023/01/07 08:41:38;;;;;;;8.90;3.47;;;11.20;99.90;;;;;;5041281;28;20326;-82
2023/01/07 08:44:07;;;;;;;8.30;3.43;;;11.20;99.90;;;;;;5040257;28;20236;-84
2023/01/07 08:46:34;;;;;;;10.43;3.83;;;11.20;99.90;;;;;;5022887;28;20248;-82
2023/01/07 08:49:02;;;;;;;9.90;3.47;;;11.20;99.90;;;;;;5022167;28;20317;-83
2023/01/07 08:51:29;;;;;;;11.93;3.50;;;11.30;99.90;;;;;;5045859;28;20208;-83
2023/01/07 08:53:55;;;;;;;10.20;3.40;;;11.30;99.90;;;;;;5042750;28;20248;-83
2023/01/07 08:56:22;;;;;;;9.23;3.50;;;11.30;99.90;;;;;;5023405;28;20220;-83
2023/01/07 08:58:49;;;;;;;13.70;3.77;;;11.30;99.90;;;;;;5033421;28;20279;-83
2023/01/07 09:01:18;;;;;;;9.93;3.43;;;11.30;99.90;;;;;;5037980;28;20307;-80
2023/01/07 09:03:45;;;;;;;12.43;4.07;;;11.30;99.90;;;;;;5034167;28;20290;-80
2023/01/07 09:06:12;;;;;;;9.70;3.67;;;11.30;99.90;;;;;;5041810;28;20227;-79
2023/01/07 09:08:39;;;;;;;10.57;4.23;;;11.40;99.90;;;;;;5027152;28;20754;-80
2023/01/07 09:11:07;;;;;;;8.70;3.40;;;11.40;99.90;;;;;;5041800;28;20215;-80
2023/01/07 09:13:34;;;;;;;10.20;3.67;;;11.40;99.90;;;;;;5040674;28;20229;-81
2023/01/07 09:16:01;;;;;;;10.07;3.87;;;11.40;99.90;;;;;;5040954;28;20205;-80
2023/01/07 09:18:29;;;;;;;9.37;3.43;;;11.40;99.90;;;;;;5019491;28;20632;-81
2023/01/07 09:20:56;;;;;;;8.63;3.27;;;11.40;99.90;;;;;;5040843;28;20213;-80
2023/01/07 09:23:23;;;;;;;9.90;3.90;;;11.50;99.90;;;;;;5030882;28;20222;-80
2023/01/07 09:25:50;;;;;;;10.27;3.27;;;11.50;99.90;;;;;;5051124;28;20201;-84
2023/01/07 09:28:17;;;;;;;8.33;3.40;;;11.50;99.90;;;;;;5042901;28;20196;-83
2023/01/07 09:30:44;;;;;;;7.63;3.00;;;11.50;99.90;;;;;;5038086;28;20293;-84
2023/01/07 09:33:11;;;;;;;7.93;2.83;;;11.60;99.90;;;;;;5021625;28;20225;-84
2023/01/07 09:35:40;;;;;;;8.37;3.03;;;11.60;99.90;;;;;;5048238;28;20607;-84
2023/01/07 09:38:07;;;;;;;9.83;3.70;;;11.60;99.90;;;;;;5032638;28;20205;-84
2023/01/07 09:40:37;;;;;;;10.70;3.97;;;11.60;99.90;;;;;;5035183;28;20209;-85
2023/01/07 09:43:12;;;;;;;8.23;2.90;;;11.70;99.90;;;;;;5034899;28;20271;-83
2023/01/07 09:45:42;;;;;;;6.83;2.70;;;11.70;99.90;;;;;;5041343;28;20261;-83
2023/01/07 09:48:17;;;;;;;7.90;3.17;;;11.80;99.90;;;;;;5027357;28;20292;-85
2023/01/07 09:50:52;;;;;;;7.13;2.83;;;11.90;99.90;;;;;;5048140;28;20297;-83
2023/01/07 09:53:24;;;;;;;6.50;2.53;;;12.00;99.90;;;;;;5051054;28;20675;-84
2023/01/07 09:55:53;;;;;;;9.13;2.90;;;12.10;99.90;;;;;;5062293;28;20205;-85
2023/01/07 09:58:22;;;;;;;6.27;2.70;;;12.20;99.90;;;;;;5042713;28;20268;-83
2023/01/07 10:00:59;;;;;;;7.07;2.60;;;12.30;99.90;;;;;;5040432;28;20308;-83
2023/01/07 10:03:47;;;;;;;8.10;3.37;;;12.50;99.90;;;;;;5042611;28;20237;-83
2023/01/07 10:06:21;;;;;;;9.13;2.83;;;12.50;99.90;;;;;;5040999;28;20202;-84
2023/01/07 10:09:03;;;;;;;8.03;3.23;;;12.60;99.90;;;;;;5043380;28;20801;-85
2023/01/07 10:11:40;;;;;;;7.03;2.70;;;12.70;99.90;;;;;;5049605;28;20202;-84
2023/01/07 10:14:37;;;;;;;5.97;2.73;;;12.70;99.90;;;;;;5046269;28;20249;-85
2023/01/07 10:17:15;;;;;;;9.10;3.27;;;12.90;99.90;;;;;;5024933;28;20747;-83
2023/01/07 10:19:47;;;;;;;7.77;2.97;;;12.90;99.90;;;;;;5061630;28;20267;-84
2023/01/07 10:22:22;;;;;;;6.63;2.63;;;13.00;99.90;;;;;;5050373;28;20229;-85
2023/01/07 10:24:54;;;;;;;7.03;2.90;;;13.40;99.90;;;;;;5014779;28;20211;-86
2023/01/07 10:27:30;;;;;;;8.53;3.10;;;13.10;99.90;;;;;;5028894;28;20203;-89
2023/01/07 10:30:02;;;;;;;9.70;3.40;;;13.20;99.90;;;;;;5016967;28;20230;-84
2023/01/07 10:32:32;;;;;;;7.43;2.83;;;13.30;99.90;;;;;;5041382;28;20224;-85
2023/01/07 10:35:01;;;;;;;6.97;2.83;;;13.40;99.90;;;;;;5019641;28;20304;-86
2023/01/07 10:37:32;;;;;;;7.77;3.37;;;13.50;99.90;;;;;;5032724;28;20248;-82
2023/01/07 10:40:15;;;;;;;9.67;3.17;;;13.70;99.90;;;;;;5035076;28;20208;-85
2023/01/07 10:42:51;;;;;;;8.23;3.10;;;13.70;99.90;;;;;;5044134;28;20225;-85
2023/01/07 10:45:46;;;;;;;7.80;3.40;;;13.80;99.90;;;;;;5028496;28;20212;-85
2023/01/07 10:48:43;;;;;;;7.53;2.77;;;13.80;99.90;;;;;;5052699;28;20338;-85
2023/01/07 10:51:39;;;;;;;7.63;3.00;;;13.90;99.90;;;;;;5037295;28;20644;-85
2023/01/07 10:54:18;;;;;;;8.03;3.00;;;14.00;99.90;;;;;;5021207;28;20215;-85
2023/01/07 10:56:50;;;;;;;8.50;3.10;;;14.00;99.90;;;;;;5038889;28;20213;-85
2023/01/07 10:59:19;;;;;;;9.60;3.70;;;14.20;99.90;;;;;;5046745;28;20772;-85
2023/01/07 11:01:51;;;;;;;6.93;3.00;;;14.00;99.90;;;;;;5036487;28;20239;-84
2023/01/07 11:04:18;;;;;;;7.93;3.30;;;13.90;99.90;;;;;;5050616;28;20206;-84
2023/01/07 11:06:50;;;;;;;8.43;3.23;;;13.80;99.90;;;;;;5042922;28;20217;-84
2023/01/07 11:09:22;;;;;;;8.13;3.40;;;13.60;99.90;;;;;;5040241;28;20226;-84
2023/01/07 11:11:51;;;;;;;7.10;3.00;;;13.50;99.90;;;;;;5055556;28;20726;-84
2023/01/07 11:14:23;;;;;;;8.20;3.30;;;13.50;99.90;;;;;;5045200;28;20251;-84
2023/01/07 11:16:54;;;;;;;10.40;3.53;;;13.50;99.90;;;;;;5042952;28;20201;-85
2023/01/07 11:19:22;;;;;;;7.17;3.33;;;13.50;99.90;;;;;;5042620;28;20212;-85
2023/01/07 11:21:50;;;;;;;8.27;3.47;;;13.60;99.90;;;;;;5048426;28;20220;-85
2023/01/07 11:24:43;;;;;;;6.70;3.50;;;13.60;99.90;;;;;;5026380;28;20212;-85
2023/01/07 11:27:15;;;;;;;10.80;3.60;;;13.70;99.90;;;;;;5015093;28;20216;-84
2023/01/07 11:29:44;;;;;;;8.40;3.43;;;13.70;99.90;;;;;;5022619;28;20297;-85
2023/01/07 11:32:21;;;;;;;9.47;3.70;;;13.80;99.90;;;;;;5042536;28;20226;-81
2023/01/07 11:34:55;;;;;;;12.33;4.10;;;13.80;99.90;;;;;;5022119;28;20234;-81
2023/01/07 11:37:37;;;;;;;8.87;3.77;;;13.80;99.90;;;;;;5044905;28;20633;-80
2023/01/07 11:40:19;;;;;;;8.70;3.90;;;14.70;99.90;;;;;;5041758;28;20680;-79
2023/01/07 11:42:52;;;;;;;10.03;4.00;;;13.80;99.90;;;;;;5019453;28;20324;-79
2023/01/07 11:45:21;;;;;;;9.83;4.20;;;13.80;99.90;;;;;;5041667;28;20669;-80
2023/01/07 11:47:54;;;;;;;8.77;4.20;;;13.80;99.90;;;;;;5044627;28;20213;-81
2023/01/07 11:50:27;;;;;;;7.07;3.33;;;13.90;99.90;;;;;;5041129;28;20700;-81
2023/01/07 11:52:56;;;;;;;7.33;3.60;;;14.00;99.90;;;;;;5044986;28;20226;-82
2023/01/07 11:55:25;;;;;;;10.70;4.27;;;14.10;99.90;;;;;;5020164;28;20690;-81
2023/01/07 11:57:55;;;;;;;7.97;3.67;;;14.20;99.90;;;;;;5037641;28;20232;-80
2023/01/07 12:00:23;;;;;;;8.37;3.60;;;14.30;99.90;;;;;;5022936;28;20298;-81
2023/01/07 12:03:01;;;;;;;9.13;3.67;;;14.30;99.90;;;;;;5035807;28;20227;-81
2023/01/07 12:05:29;;;;;;;8.40;3.90;;;14.30;99.90;;;;;;5023380;28;20218;-81
2023/01/07 12:07:57;;;;;;;7.40;3.40;;;14.20;99.90;;;;;;5059477;28;20239;-82
2023/01/07 12:10:33;;;;;;;8.50;3.37;;;14.10;99.90;;;;;;5073261;28;20212;-82
2023/01/07 12:13:02;;;;;;;10.83;4.00;;;14.00;99.90;;;;;;5044109;28;20226;-81
2023/01/07 12:15:33;;;;;;;9.03;3.60;;;13.90;99.90;;;;;;5030685;28;20230;-82
2023/01/07 12:18:32;;;;;;;8.27;3.70;;;13.90;99.90;;;;;;5042446;28;20206;-81
2023/01/07 12:21:27;;;;;;;10.20;4.07;;;14.00;99.90;;;;;;5039637;28;20220;-86
2023/01/07 12:24:12;;;;;;;8.67;3.50;;;14.00;99.90;;;;;;5019126;28;20232;-82
2023/01/07 12:26:48;;;;;;;9.43;3.77;;;14.00;99.90;;;;;;5031443;28;20604;-83
2023/01/07 12:29:24;;;;;;;7.73;3.23;;;13.90;99.90;;;;;;5042918;28;20206;-81
2023/01/07 12:32:04;;;;;;;9.87;3.83;;;13.80;99.90;;;;;;5036665;28;20279;-85
2023/01/07 12:34:43;;;;;;;9.97;3.53;;;13.80;99.90;;;;;;5045483;28;20233;-82
2023/01/07 12:37:22;;;;;;;7.47;3.23;;;14.00;99.90;;;;;;5042539;28;20216;-81
2023/01/07 12:39:53;;;;;;;9.17;3.60;;;14.10;99.90;;;;;;5035309;28;20289;-81
2023/01/07 12:42:28;;;;;;;7.10;3.30;;;14.20;99.90;;;;;;5049565;28;20306;-81
2023/01/07 12:45:01;;;;;;;5.87;2.50;;;14.30;99.90;;;;;;5036718;28;20211;-81
2023/01/07 12:47:34;;;;;;;8.40;3.30;;;14.30;99.90;;;;;;5038876;28;20217;-81
2023/01/07 12:50:05;;;;;;;7.20;3.00;;;14.30;99.90;;;;;;5023658;28;20215;-81
2023/01/07 12:52:41;;;;;;;6.53;2.57;;;14.30;99.90;;;;;;5036131;28;20233;-81
2023/01/07 12:55:15;;;;;;;6.57;2.73;;;14.30;99.90;;;;;;5045257;28;20960;-80
2023/01/07 12:57:49;;;;;;;8.47;3.27;;;14.30;99.90;;;;;;5044369;28;20258;-83
2023/01/07 13:00:21;;;;;;;9.17;3.20;;;14.30;99.90;;;;;;5038676;28;20211;-82
2023/01/07 13:02:55;;;;;;;8.77;3.10;;;14.20;99.90;;;;;;5047007;28;20222;-82
2023/01/07 13:05:26;;;;;;;7.90;3.00;;;14.20;99.90;;;;;;5035353;28;20254;-85